sensor_id;sensor_type;location;lat;lon;timestamp;pressure;altitude;pressure_sealevel;temperature;humidity
7586;BME280;12459;42.646;23.292;2023-05-02T00:03:08;93993.38;;;15.05;74.12
7586;BME280;12459;42.646;23.292;2023-05-02T00:18:10;93780.97;;;13.52;73.58
7586;BME280;12459;42.646;23.292;2023-05-02T00:33:12;94009.84;;;14.75;75.36
7586;BME280;12459;42.646;23.292;2023-05-02T00:48:15;93936.91;;;13.86;76.48
7586;BME280;12459;42.646;23.292;2023-05-02T01:03:49;93790.88;;;12.96;76.60
7586;BME280;12459;42.646;23.292;2023-05-02T01:18:57;93666.34;;;11.93;78.90
7586;BME280;12459;42.646;23.292;2023-05-02T01:34:01;93849.66;;;13.40;79.10
7586;BME280;12459;42.646;23.292;2023-05-02T01:49:06;94018.44;;;14.30;80.92
7586;BME280;12459;42.646;23.292;2023-05-02T02:04:10;93873.44;;;13.22;82.17
7586;BME280;12459;42.646;23.292;2023-05-02T02:19:14;93994.44;;;13.96;83.27
7586;BME280;12459;42.646;23.292;2023-05-02T02:34:15;93949.53;;;13.46;83.28
7586;BME280;12459;42.646;23.292;2023-05-02T03:04:40;94048.47;;;13.15;89.15
7586;BME280;12459;42.646;23.292;2023-05-02T03:19:43;94019.22;;;12.90;88.48
7586;BME280;12459;42.646;23.292;2023-05-02T03:34:45;94010.00;;;13.18;86.37
7586;BME280;12459;42.646;23.292;2023-05-02T03:49:47;93924.53;;;12.52;85.94
7586;BME280;12459;42.646;23.292;2023-05-02T04:04:48;93879.16;;;12.00;87.71
7586;BME280;12459;42.646;23.292;2023-05-02T04:19:50;93830.09;;;11.66;89.98
7586;BME280;12459;42.646;23.292;2023-05-02T04:34:53;94069.69;;;14.06;86.62
7586;BME280;12459;42.646;23.292;2023-05-02T04:49:54;94033.56;;;14.24;85.98
7586;BME280;12459;42.646;23.292;2023-05-02T05:04:56;93891.19;;;13.83;81.25
7586;BME280;12459;42.646;23.292;2023-05-02T05:19:58;93976.97;;;14.80;79.31
7586;BME280;12459;42.646;23.292;2023-05-02T05:35:00;93759.38;;;13.56;77.81
7586;BME280;12459;42.646;23.292;2023-05-02T05:50:03;93940.16;;;14.53;78.07
7586;BME280;12459;42.646;23.292;2023-05-02T06:05:05;93641.78;;;12.77;75.93
7586;BME280;12459;42.646;23.292;2023-05-02T06:20:07;93993.66;;;15.88;73.48
7586;BME280;12459;42.646;23.292;2023-05-02T06:35:10;94087.47;;;16.66;70.21
7586;BME280;12459;42.646;23.292;2023-05-02T06:50:12;93880.66;;;15.09;68.82
7586;BME280;12459;42.646;23.292;2023-05-02T07:05:15;94042.63;;;16.36;68.43
7586;BME280;12459;42.646;23.292;2023-05-02T07:20:17;93992.06;;;16.20;66.06
7586;BME280;12459;42.646;23.292;2023-05-02T07:35:18;94094.91;;;17.29;63.81
7586;BME280;12459;42.646;23.292;2023-05-02T07:50:20;93811.69;;;14.92;63.30
7586;BME280;12459;42.646;23.292;2023-05-02T08:05:23;94096.63;;;16.97;63.52
7586;BME280;12459;42.646;23.292;2023-05-02T08:20:24;94097.81;;;16.96;62.99
7586;BME280;12459;42.646;23.292;2023-05-02T08:35:29;94091.13;;;17.26;62.43
7586;BME280;12459;42.646;23.292;2023-05-02T08:50:36;94000.44;;;17.31;60.70
7586;BME280;12459;42.646;23.292;2023-05-02T09:05:41;94090.91;;;18.31;59.12
7586;BME280;12459;42.646;23.292;2023-05-02T09:20:43;93925.44;;;17.62;58.30
7586;BME280;12459;42.646;23.292;2023-05-02T09:35:52;93875.16;;;17.27;58.19
7586;BME280;12459;42.646;23.292;2023-05-02T09:50:56;93784.91;;;16.22;55.46
7586;BME280;12459;42.646;23.292;2023-05-02T10:05:58;93876.56;;;16.84;55.87
7586;BME280;12459;42.646;23.292;2023-05-02T10:21:08;94026.91;;;18.21;56.20
7586;BME280;12459;42.646;23.292;2023-05-02T10:36:11;94045.50;;;18.88;52.54
7586;BME280;12459;42.646;23.292;2023-05-02T10:51:26;93860.06;;;17.95;50.67
7586;BME280;12459;42.646;23.292;2023-05-02T11:06:29;94005.25;;;19.45;48.40
7586;BME280;12459;42.646;23.292;2023-05-02T11:21:31;93926.88;;;19.43;48.88
7586;BME280;12459;42.646;23.292;2023-05-02T11:36:34;93562.34;;;17.31;48.70
7586;BME280;12459;42.646;23.292;2023-05-02T11:51:36;93887.22;;;19.83;46.50
7586;BME280;12459;42.646;23.292;2023-05-02T12:06:38;93958.16;;;20.67;46.35
7586;BME280;12459;42.646;23.292;2023-05-02T12:21:40;93973.16;;;21.14;46.47
7586;BME280;12459;42.646;23.292;2023-05-02T12:36:44;93765.13;;;19.66;46.53
7586;BME280;12459;42.646;23.292;2023-05-02T12:51:52;93718.69;;;19.09;45.72
7586;BME280;12459;42.646;23.292;2023-05-02T13:06:54;93794.47;;;19.53;46.51
7586;BME280;12459;42.646;23.292;2023-05-02T13:21:56;93914.94;;;20.32;46.97
7586;BME280;12459;42.646;23.292;2023-05-02T13:36:58;93684.09;;;17.88;45.40
7586;BME280;12459;42.646;23.292;2023-05-02T13:52:00;93714.53;;;18.50;45.39
7586;BME280;12459;42.646;23.292;2023-05-02T14:07:01;93881.44;;;19.53;45.18
7586;BME280;12459;42.646;23.292;2023-05-02T14:22:03;93722.34;;;18.39;44.96
7586;BME280;12459;42.646;23.292;2023-05-02T14:37:05;93754.81;;;18.61;45.68
7586;BME280;12459;42.646;23.292;2023-05-02T14:52:09;93815.25;;;19.01;45.18
7586;BME280;12459;42.646;23.292;2023-05-02T15:07:10;93752.16;;;18.21;45.47
7586;BME280;12459;42.646;23.292;2023-05-02T15:22:12;93897.63;;;18.89;45.34
7586;BME280;12459;42.646;23.292;2023-05-02T15:37:16;93659.81;;;17.22;45.16
7586;BME280;12459;42.646;23.292;2023-05-02T15:52:18;93852.63;;;18.48;44.78
7586;BME280;12459;42.646;23.292;2023-05-02T16:07:19;93634.09;;;16.74;45.25
7586;BME280;12459;42.646;23.292;2023-05-02T16:22:21;93707.88;;;16.87;45.02
7586;BME280;12459;42.646;23.292;2023-05-02T16:37:23;93900.22;;;18.09;46.08
7586;BME280;12459;42.646;23.292;2023-05-02T16:52:25;93861.59;;;17.61;47.72
7586;BME280;12459;42.646;23.292;2023-05-02T17:07:27;93762.47;;;16.73;47.92
7586;BME280;12459;42.646;23.292;2023-05-02T17:22:29;93793.66;;;16.39;46.65
7586;BME280;12459;42.646;23.292;2023-05-02T17:37:31;93835.53;;;16.47;46.38
7586;BME280;12459;42.646;23.292;2023-05-02T17:52:33;93916.84;;;16.82;46.67
7586;BME280;12459;42.646;23.292;2023-05-02T18:07:36;93793.25;;;16.03;48.08
7586;BME280;12459;42.646;23.292;2023-05-02T18:22:37;93900.25;;;16.42;48.63
7586;BME280;12459;42.646;23.292;2023-05-02T18:37:39;93762.97;;;15.41;49.05
7586;BME280;12459;42.646;23.292;2023-05-02T18:52:41;93933.31;;;16.20;49.10
7586;BME280;12459;42.646;23.292;2023-05-02T19:07:43;94038.00;;;16.65;49.12
7586;BME280;12459;42.646;23.292;2023-05-02T19:22:45;93776.06;;;15.13;49.62
7586;BME280;12459;42.646;23.292;2023-05-02T19:37:47;93772.13;;;15.30;47.61
7586;BME280;12459;42.646;23.292;2023-05-02T19:52:49;93990.50;;;16.60;49.17
7586;BME280;12459;42.646;23.292;2023-05-02T20:07:51;93869.09;;;15.70;50.59
7586;BME280;12459;42.646;23.292;2023-05-02T20:22:53;93952.75;;;15.57;50.99
7586;BME280;12459;42.646;23.292;2023-05-02T20:37:58;93968.72;;;15.68;51.54
7586;BME280;12459;42.646;23.292;2023-05-02T20:53:00;93779.38;;;14.43;53.16
7586;BME280;12459;42.646;23.292;2023-05-02T21:08:02;93896.88;;;15.09;54.84
7586;BME280;12459;42.646;23.292;2023-05-02T21:23:04;93773.44;;;14.16;55.69
7586;BME280;12459;42.646;23.292;2023-05-02T21:38:06;93791.38;;;14.06;54.57
7586;BME280;12459;42.646;23.292;2023-05-02T21:53:09;93858.63;;;14.29;55.13
7586;BME280;12459;42.646;23.292;2023-05-02T22:08:11;93970.41;;;14.97;57.53
7586;BME280;12459;42.646;23.292;2023-05-02T22:23:14;93998.59;;;14.96;57.47
7586;BME280;12459;42.646;23.292;2023-05-02T22:38:16;93923.09;;;13.84;59.10
7586;BME280;12459;42.646;23.292;2023-05-02T22:53:20;93851.47;;;13.67;58.11
7586;BME280;12459;42.646;23.292;2023-05-02T23:08:25;93950.09;;;14.00;56.89
7586;BME280;12459;42.646;23.292;2023-05-02T23:23:27;93977.03;;;14.60;56.51
7586;BME280;12459;42.646;23.292;2023-05-02T23:38:29;93747.78;;;12.79;57.76
7586;BME280;12459;42.646;23.292;2023-05-02T23:53:31;93782.50;;;12.70;55.52
